sensor_id;sensor_type;location;lat;lon;timestamp;pressure;altitude;pressure_sealevel;temperature;humidity
79534;BME280;68982;52.160;6.736;2023-09-18T00:01:19;100493.81;;;18.21;100.00
79534;BME280;68982;52.160;6.736;2023-09-18T00:03:45;100490.28;;;18.21;100.00
79534;BME280;68982;52.160;6.736;2023-09-18T00:06:10;100491.91;;;18.22;100.00
79534;BME280;68982;52.160;6.736;2023-09-18T00:08:36;100492.16;;;18.20;100.00
79534;BME280;68982;52.160;6.736;2023-09-18T00:11:03;100471.66;;;18.18;100.00
79534;BME280;68982;52.160;6.736;2023-09-18T00:13:29;100473.06;;;18.20;100.00
79534;BME280;68982;52.160;6.736;2023-09-18T00:15:55;100473.41;;;18.24;100.00
79534;BME280;68982;52.160;6.736;2023-09-18T00:18:20;100469.03;;;18.23;100.00
79534;BME280;68982;52.160;6.736;2023-09-18T00:20:46;100458.34;;;18.21;100.00
79534;BME280;68982;52.160;6.736;2023-09-18T00:23:13;100447.84;;;18.13;100.00
79534;BME280;68982;52.160;6.736;2023-09-18T00:25:40;100450.91;;;18.17;100.00
79534;BME280;68982;52.160;6.736;2023-09-18T00:28:08;100454.69;;;18.16;100.00
79534;BME280;68982;52.160;6.736;2023-09-18T00:30:34;100465.13;;;18.19;100.00
79534;BME280;68982;52.160;6.736;2023-09-18T00:32:59;100466.47;;;18.16;100.00
79534;BME280;68982;52.160;6.736;2023-09-18T00:35:25;100456.38;;;18.17;100.00
79534;BME280;68982;52.160;6.736;2023-09-18T00:37:50;100445.19;;;18.18;100.00
79534;BME280;68982;52.160;6.736;2023-09-18T00:40:16;100433.97;;;18.15;100.00
79534;BME280;68982;52.160;6.736;2023-09-18T00:42:41;100413.47;;;18.12;100.00
79534;BME280;68982;52.160;6.736;2023-09-18T00:45:07;100406.66;;;18.15;100.00
79534;BME280;68982;52.160;6.736;2023-09-18T00:47:33;100402.84;;;18.16;100.00
79534;BME280;68982;52.160;6.736;2023-09-18T00:49:59;100389.38;;;18.09;100.00
79534;BME280;68982;52.160;6.736;2023-09-18T00:52:26;100387.16;;;18.06;100.00
79534;BME280;68982;52.160;6.736;2023-09-18T00:54:52;100386.91;;;18.08;100.00
79534;BME280;68982;52.160;6.736;2023-09-18T00:57:19;100389.38;;;18.09;100.00
79534;BME280;68982;52.160;6.736;2023-09-18T00:59:45;100398.97;;;18.12;100.00
79534;BME280;68982;52.160;6.736;2023-09-18T01:02:10;100383.69;;;18.11;100.00
79534;BME280;68982;52.160;6.736;2023-09-18T01:04:37;100382.03;;;18.10;100.00
79534;BME280;68982;52.160;6.736;2023-09-18T01:07:02;100378.47;;;18.09;100.00
79534;BME280;68982;52.160;6.736;2023-09-18T01:09:32;100378.81;;;18.13;100.00
79534;BME280;68982;52.160;6.736;2023-09-18T01:17:20;100368.41;;;18.10;100.00
79534;BME280;68982;52.160;6.736;2023-09-18T01:19:46;100376.91;;;18.13;100.00
79534;BME280;68982;52.160;6.736;2023-09-18T01:22:17;100368.22;;;18.16;100.00
79534;BME280;68982;52.160;6.736;2023-09-18T01:24:45;100360.88;;;18.17;100.00
79534;BME280;68982;52.160;6.736;2023-09-18T01:27:14;100363.00;;;18.15;100.00
79534;BME280;68982;52.160;6.736;2023-09-18T01:29:40;100352.91;;;18.15;100.00
79534;BME280;68982;52.160;6.736;2023-09-18T01:32:06;100339.22;;;18.10;100.00
79534;BME280;68982;52.160;6.736;2023-09-18T01:34:49;100337.63;;;18.14;100.00
79534;BME280;68982;52.160;6.736;2023-09-18T01:37:17;100326.97;;;18.13;100.00
79534;BME280;68982;52.160;6.736;2023-09-18T01:39:47;100315.13;;;18.07;100.00
79534;BME280;68982;52.160;6.736;2023-09-18T01:42:14;100321.16;;;18.09;100.00
79534;BME280;68982;52.160;6.736;2023-09-18T01:44:40;100314.56;;;18.05;98.64
79534;BME280;68982;52.160;6.736;2023-09-18T01:47:08;100309.19;;;18.10;99.64
79534;BME280;68982;52.160;6.736;2023-09-18T01:49:38;100313.31;;;18.13;100.00
79534;BME280;68982;52.160;6.736;2023-09-18T01:52:06;100308.19;;;18.16;99.65
79534;BME280;68982;52.160;6.736;2023-09-18T01:54:32;100300.50;;;18.13;100.00
79534;BME280;68982;52.160;6.736;2023-09-18T01:56:58;100281.09;;;18.10;100.00
79534;BME280;68982;52.160;6.736;2023-09-18T01:59:24;100281.91;;;18.10;100.00
79534;BME280;68982;52.160;6.736;2023-09-18T02:01:50;100285.84;;;18.19;100.00
79534;BME280;68982;52.160;6.736;2023-09-18T02:04:16;100284.69;;;18.15;100.00
79534;BME280;68982;52.160;6.736;2023-09-18T02:06:43;100273.97;;;18.09;100.00
79534;BME280;68982;52.160;6.736;2023-09-18T02:09:08;100287.44;;;18.15;100.00
79534;BME280;68982;52.160;6.736;2023-09-18T02:11:38;100281.22;;;18.20;100.00
79534;BME280;68982;52.160;6.736;2023-09-18T02:14:04;100285.84;;;18.19;100.00
79534;BME280;68982;52.160;6.736;2023-09-18T02:16:36;100279.06;;;18.22;100.00
79534;BME280;68982;52.160;6.736;2023-09-18T02:19:02;100279.06;;;18.22;99.71
79534;BME280;68982;52.160;6.736;2023-09-18T02:21:29;100272.53;;;18.23;100.00
79534;BME280;68982;52.160;6.736;2023-09-18T02:23:54;100258.56;;;18.19;99.93
79534;BME280;68982;52.160;6.736;2023-09-18T02:26:21;100268.16;;;18.22;100.00
79534;BME280;68982;52.160;6.736;2023-09-18T02:28:46;100262.75;;;18.27;100.00
79534;BME280;68982;52.160;6.736;2023-09-18T02:31:12;100267.09;;;18.23;100.00
79534;BME280;68982;52.160;6.736;2023-09-18T02:33:38;100267.63;;;18.25;100.00
79534;BME280;68982;52.160;6.736;2023-09-18T02:36:04;100267.09;;;18.23;100.00
79534;BME280;68982;52.160;6.736;2023-09-18T02:38:30;100269.06;;;18.28;99.99
79534;BME280;68982;52.160;6.736;2023-09-18T02:40:55;100260.00;;;18.27;99.33
79534;BME280;68982;52.160;6.736;2023-09-18T02:43:22;100253.75;;;18.27;99.91
79534;BME280;68982;52.160;6.736;2023-09-18T02:45:48;100255.06;;;18.24;100.00
79534;BME280;68982;52.160;6.736;2023-09-18T02:48:14;100241.94;;;18.21;100.00
79534;BME280;68982;52.160;6.736;2023-09-18T02:50:40;100238.38;;;18.20;100.00
79534;BME280;68982;52.160;6.736;2023-09-18T02:53:06;100239.22;;;18.21;100.00
79534;BME280;68982;52.160;6.736;2023-09-18T02:55:31;100226.34;;;18.16;100.00
79534;BME280;68982;52.160;6.736;2023-09-18T02:57:57;100227.22;;;18.22;99.72
79534;BME280;68982;52.160;6.736;2023-09-18T03:00:22;100220.38;;;18.19;100.00
79534;BME280;68982;52.160;6.736;2023-09-18T03:02:47;100211.59;;;18.17;100.00
79534;BME280;68982;52.160;6.736;2023-09-18T03:05:13;100210.03;;;18.21;100.00
79534;BME280;68982;52.160;6.736;2023-09-18T03:07:38;100202.09;;;18.20;100.00
79534;BME280;68982;52.160;6.736;2023-09-18T03:10:04;100193.59;;;18.16;100.00
79534;BME280;68982;52.160;6.736;2023-09-18T03:12:30;100173.59;;;18.11;100.00
79534;BME280;68982;52.160;6.736;2023-09-18T03:14:56;100169.28;;;18.15;100.00
79534;BME280;68982;52.160;6.736;2023-09-18T03:17:22;100158.38;;;18.15;100.00
79534;BME280;68982;52.160;6.736;2023-09-18T03:19:48;100148.03;;;18.17;100.00
79534;BME280;68982;52.160;6.736;2023-09-18T03:22:14;100138.19;;;18.16;100.00
79534;BME280;68982;52.160;6.736;2023-09-18T03:24:39;100137.38;;;18.15;100.00
79534;BME280;68982;52.160;6.736;2023-09-18T03:27:05;100120.19;;;18.15;99.98
79534;BME280;68982;52.160;6.736;2023-09-18T03:29:30;100105.97;;;18.13;100.00
79534;BME280;68982;52.160;6.736;2023-09-18T03:31:56;100096.88;;;18.07;99.69
79534;BME280;68982;52.160;6.736;2023-09-18T03:34:23;100101.91;;;18.15;99.82
79534;BME280;68982;52.160;6.736;2023-09-18T03:36:51;100090.97;;;18.15;99.99
79534;BME280;68982;52.160;6.736;2023-09-18T03:39:17;100085.00;;;18.18;99.51
79534;BME280;68982;52.160;6.736;2023-09-18T03:41:42;100076.31;;;18.21;98.60
79534;BME280;68982;52.160;6.736;2023-09-18T03:44:07;100071.66;;;18.22;98.67
79534;BME280;68982;52.160;6.736;2023-09-18T03:46:35;100061.56;;;18.22;98.81
79534;BME280;68982;52.160;6.736;2023-09-18T03:49:01;100063.81;;;18.26;99.04
79534;BME280;68982;52.160;6.736;2023-09-18T03:51:26;100055.63;;;18.26;98.38
79534;BME280;68982;52.160;6.736;2023-09-18T03:53:52;100050.44;;;18.29;98.62
79534;BME280;68982;52.160;6.736;2023-09-18T03:56:17;100059.72;;;18.28;98.91
79534;BME280;68982;52.160;6.736;2023-09-18T03:58:42;100045.28;;;18.28;98.31
79534;BME280;68982;52.160;6.736;2023-09-18T04:01:10;100058.13;;;18.32;98.02
79534;BME280;68982;52.160;6.736;2023-09-18T04:03:35;100054.63;;;18.37;97.33
79534;BME280;68982;52.160;6.736;2023-09-18T04:06:01;100050.81;;;18.38;97.34
79534;BME280;68982;52.160;6.736;2023-09-18T04:08:26;100040.97;;;18.37;98.02
79534;BME280;68982;52.160;6.736;2023-09-18T04:10:51;100043.16;;;18.35;97.98
79534;BME280;68982;52.160;6.736;2023-09-18T04:13:20;100044.53;;;18.37;97.90
79534;BME280;68982;52.160;6.736;2023-09-18T04:15:46;100048.03;;;18.33;98.61
79534;BME280;68982;52.160;6.736;2023-09-18T04:18:11;100041.47;;;18.34;97.83
79534;BME280;68982;52.160;6.736;2023-09-18T04:20:37;100051.03;;;18.31;98.16
79534;BME280;68982;52.160;6.736;2023-09-18T04:25:43;100047.22;;;18.32;98.41
79534;BME280;68982;52.160;6.736;2023-09-18T04:28:08;100038.72;;;18.29;99.31
79534;BME280;68982;52.160;6.736;2023-09-18T04:30:34;100042.53;;;18.28;98.94
79534;BME280;68982;52.160;6.736;2023-09-18T04:32:59;100043.66;;;18.32;98.36
79534;BME280;68982;52.160;6.736;2023-09-18T04:35:24;100042.06;;;18.36;97.87
79534;BME280;68982;52.160;6.736;2023-09-18T04:37:50;100036.94;;;18.44;97.03
79534;BME280;68982;52.160;6.736;2023-09-18T04:40:15;100025.03;;;18.56;95.62
79534;BME280;68982;52.160;6.736;2023-09-18T04:42:41;100018.22;;;18.58;95.49
79534;BME280;68982;52.160;6.736;2023-09-18T04:45:08;100023.78;;;18.74;94.70
79534;BME280;68982;52.160;6.736;2023-09-18T04:47:33;100013.88;;;18.62;94.51
79534;BME280;68982;52.160;6.736;2023-09-18T04:49:58;100039.16;;;18.80;94.73
79534;BME280;68982;52.160;6.736;2023-09-18T04:52:24;100040.28;;;18.84;95.23
79534;BME280;68982;52.160;6.736;2023-09-18T04:54:49;100028.22;;;18.80;96.31
79534;BME280;68982;52.160;6.736;2023-09-18T04:57:14;100028.22;;;18.80;96.62
79534;BME280;68982;52.160;6.736;2023-09-18T04:59:40;100028.75;;;18.77;96.78
79534;BME280;68982;52.160;6.736;2023-09-18T05:02:05;100036.38;;;18.75;97.58
79534;BME280;68982;52.160;6.736;2023-09-18T05:04:30;100029.78;;;18.71;97.89
79534;BME280;68982;52.160;6.736;2023-09-18T05:06:56;100035.50;;;18.69;98.91
79534;BME280;68982;52.160;6.736;2023-09-18T05:09:21;100030.56;;;18.66;97.98
79534;BME280;68982;52.160;6.736;2023-09-18T05:11:46;100048.34;;;18.69;98.74
79534;BME280;68982;52.160;6.736;2023-09-18T05:14:14;100053.47;;;18.65;99.27
79534;BME280;68982;52.160;6.736;2023-09-18T05:16:40;100036.25;;;18.59;99.73
79534;BME280;68982;52.160;6.736;2023-09-18T05:19:06;100024.19;;;18.55;99.62
79534;BME280;68982;52.160;6.736;2023-09-18T05:21:31;100028.56;;;18.56;100.00
79534;BME280;68982;52.160;6.736;2023-09-18T05:23:56;100019.53;;;18.51;100.00
79534;BME280;68982;52.160;6.736;2023-09-18T05:26:22;100035.59;;;18.47;100.00
79534;BME280;68982;52.160;6.736;2023-09-18T05:28:49;100041.06;;;18.47;100.00
79534;BME280;68982;52.160;6.736;2023-09-18T05:31:15;100017.84;;;18.44;100.00
79534;BME280;68982;52.160;6.736;2023-09-18T05:33:41;100008.50;;;18.40;100.00
79534;BME280;68982;52.160;6.736;2023-09-18T05:36:06;99996.22;;;18.38;100.00
79534;BME280;68982;52.160;6.736;2023-09-18T05:38:32;99992.63;;;18.32;100.00
79534;BME280;68982;52.160;6.736;2023-09-18T05:40:57;100012.03;;;18.36;100.00
79534;BME280;68982;52.160;6.736;2023-09-18T05:43:22;100032.84;;;18.42;100.00
79534;BME280;68982;52.160;6.736;2023-09-18T05:45:47;100026.00;;;18.39;100.00
79534;BME280;68982;52.160;6.736;2023-09-18T05:48:14;100019.97;;;18.37;100.00
79534;BME280;68982;52.160;6.736;2023-09-18T05:50:40;100018.03;;;18.33;100.00
79534;BME280;68982;52.160;6.736;2023-09-18T05:53:07;100024.00;;;18.30;100.00
79534;BME280;68982;52.160;6.736;2023-09-18T05:55:33;100031.13;;;18.36;100.00
79534;BME280;68982;52.160;6.736;2023-09-18T05:57:59;100045.09;;;18.39;100.00
79534;BME280;68982;52.160;6.736;2023-09-18T06:00:25;100056.00;;;18.39;100.00
79534;BME280;68982;52.160;6.736;2023-09-18T06:02:50;100034.97;;;18.35;100.00
79534;BME280;68982;52.160;6.736;2023-09-18T06:05:17;100014.75;;;18.36;100.00
79534;BME280;68982;52.160;6.736;2023-09-18T06:07:43;100019.97;;;18.37;100.00
79534;BME280;68982;52.160;6.736;2023-09-18T06:10:10;100035.25;;;18.38;100.00
79534;BME280;68982;52.160;6.736;2023-09-18T06:12:38;100035.56;;;18.42;100.00
79534;BME280;68982;52.160;6.736;2023-09-18T06:15:04;100042.38;;;18.39;100.00
79534;BME280;68982;52.160;6.736;2023-09-18T06:17:30;100052.97;;;18.36;100.00
79534;BME280;68982;52.160;6.736;2023-09-18T06:19:56;100059.31;;;18.41;100.00
79534;BME280;68982;52.160;6.736;2023-09-18T06:22:21;100044.28;;;18.39;100.00
79534;BME280;68982;52.160;6.736;2023-09-18T06:24:46;100062.00;;;18.36;100.00
79534;BME280;68982;52.160;6.736;2023-09-18T06:27:12;100070.41;;;18.30;100.00
79534;BME280;68982;52.160;6.736;2023-09-18T06:29:37;100097.72;;;18.35;100.00
79534;BME280;68982;52.160;6.736;2023-09-18T06:32:04;100098.31;;;18.37;100.00
79534;BME280;68982;52.160;6.736;2023-09-18T06:34:31;100087.94;;;18.39;100.00
79534;BME280;68982;52.160;6.736;2023-09-18T06:36:56;100083.31;;;18.39;100.00
79534;BME280;68982;52.160;6.736;2023-09-18T06:39:21;100073.78;;;18.42;100.00
79534;BME280;68982;52.160;6.736;2023-09-18T06:41:48;100075.47;;;18.48;100.00
79534;BME280;68982;52.160;6.736;2023-09-18T06:44:14;100063.41;;;18.44;100.00
79534;BME280;68982;52.160;6.736;2023-09-18T06:46:39;100061.81;;;18.48;100.00
79534;BME280;68982;52.160;6.736;2023-09-18T06:49:05;100055.56;;;18.48;100.00
79534;BME280;68982;52.160;6.736;2023-09-18T06:51:31;100058.88;;;18.55;100.00
79534;BME280;68982;52.160;6.736;2023-09-18T06:53:56;100064.34;;;18.55;100.00
79534;BME280;68982;52.160;6.736;2023-09-18T06:56:25;100072.56;;;18.60;100.00
79534;BME280;68982;52.160;6.736;2023-09-18T06:58:51;100073.94;;;18.62;100.00
79534;BME280;68982;52.160;6.736;2023-09-18T07:01:20;100081.56;;;18.60;100.00
79534;BME280;68982;52.160;6.736;2023-09-18T07:03:46;100078.84;;;18.60;100.00
79534;BME280;68982;52.160;6.736;2023-09-18T07:06:14;100096.34;;;18.64;100.00
79534;BME280;68982;52.160;6.736;2023-09-18T07:08:44;100078.84;;;18.60;100.00
79534;BME280;68982;52.160;6.736;2023-09-18T07:11:10;100077.25;;;18.64;100.00
79534;BME280;68982;52.160;6.736;2023-09-18T07:13:37;100083.00;;;18.68;100.00
79534;BME280;68982;52.160;6.736;2023-09-18T07:16:02;100086.56;;;18.69;100.00
79534;BME280;68982;52.160;6.736;2023-09-18T07:18:28;100063.63;;;18.70;100.00
79534;BME280;68982;52.160;6.736;2023-09-18T07:20:53;100087.69;;;18.73;100.00
79534;BME280;68982;52.160;6.736;2023-09-18T07:23:20;100105.16;;;18.72;100.00
79534;BME280;68982;52.160;6.736;2023-09-18T07:25:47;100095.34;;;18.76;100.00
79534;BME280;68982;52.160;6.736;2023-09-18T07:28:12;100093.25;;;18.83;100.00
79534;BME280;68982;52.160;6.736;2023-09-18T07:30:42;100109.13;;;18.86;100.00
79534;BME280;68982;52.160;6.736;2023-09-18T07:33:12;100108.59;;;18.89;100.00
79534;BME280;68982;52.160;6.736;2023-09-18T07:35:38;100111.09;;;18.91;100.00
79534;BME280;68982;52.160;6.736;2023-09-18T07:38:04;100121.44;;;18.89;100.00
79534;BME280;68982;52.160;6.736;2023-09-18T07:40:30;100112.78;;;18.97;100.00
79534;BME280;68982;52.160;6.736;2023-09-18T07:42:55;100117.72;;;19.05;100.00
79534;BME280;68982;52.160;6.736;2023-09-18T07:45:20;100099.41;;;19.00;100.00
79534;BME280;68982;52.160;6.736;2023-09-18T07:47:46;100100.78;;;19.03;100.00
79534;BME280;68982;52.160;6.736;2023-09-18T07:50:13;100123.19;;;19.05;100.00
79534;BME280;68982;52.160;6.736;2023-09-18T07:52:38;100134.66;;;19.02;100.00
79534;BME280;68982;52.160;6.736;2023-09-18T07:55:04;100122.09;;;19.01;100.00
79534;BME280;68982;52.160;6.736;2023-09-18T07:57:29;100117.44;;;19.01;100.00
79534;BME280;68982;52.160;6.736;2023-09-18T08:00:00;100123.94;;;18.95;100.00
79534;BME280;68982;52.160;6.736;2023-09-18T08:02:32;100133.19;;;18.89;100.00
79534;BME280;68982;52.160;6.736;2023-09-18T08:05:00;100148.53;;;18.95;100.00
79534;BME280;68982;52.160;6.736;2023-09-18T08:07:25;100138.41;;;18.91;100.00
79534;BME280;68982;52.160;6.736;2023-09-18T08:09:50;100130.44;;;18.89;100.00
79534;BME280;68982;52.160;6.736;2023-09-18T08:12:16;100136.19;;;18.88;100.00
79534;BME280;68982;52.160;6.736;2023-09-18T08:14:41;100151.75;;;18.87;100.00
79534;BME280;68982;52.160;6.736;2023-09-18T08:17:07;100135.09;;;18.89;100.00
79534;BME280;68982;52.160;6.736;2023-09-18T08:19:33;100128.84;;;18.93;100.00
79534;BME280;68982;52.160;6.736;2023-09-18T08:21:59;100140.03;;;18.92;100.00
79534;BME280;68982;52.160;6.736;2023-09-18T08:24:29;100153.47;;;18.98;100.00
79534;BME280;68982;52.160;6.736;2023-09-18T08:26:54;100143.06;;;18.95;100.00
79534;BME280;68982;52.160;6.736;2023-09-18T08:29:21;100155.19;;;19.10;100.00
79534;BME280;68982;52.160;6.736;2023-09-18T08:31:47;100136.13;;;19.15;100.00
79534;BME280;68982;52.160;6.736;2023-09-18T08:34:13;100146.84;;;19.21;100.00
79534;BME280;68982;52.160;6.736;2023-09-18T08:36:39;100158.91;;;19.31;99.65
79534;BME280;68982;52.160;6.736;2023-09-18T08:39:05;100136.81;;;19.37;99.39
79534;BME280;68982;52.160;6.736;2023-09-18T08:41:38;100142.31;;;19.42;99.19
79534;BME280;68982;52.160;6.736;2023-09-18T08:44:07;100150.00;;;19.45;99.06
79534;BME280;68982;52.160;6.736;2023-09-18T08:46:34;100148.09;;;19.51;98.60
79534;BME280;68982;52.160;6.736;2023-09-18T08:49:00;100138.53;;;19.49;98.37
79534;BME280;68982;52.160;6.736;2023-09-18T08:51:26;100138.03;;;19.57;98.50
79534;BME280;68982;52.160;6.736;2023-09-18T08:53:53;100146.59;;;19.71;97.96
79534;BME280;68982;52.160;6.736;2023-09-18T08:56:20;100165.00;;;19.85;97.58
79534;BME280;68982;52.160;6.736;2023-09-18T08:58:46;100168.63;;;20.01;96.69
79534;BME280;68982;52.160;6.736;2023-09-18T09:01:12;100156.88;;;20.06;95.30
79534;BME280;68982;52.160;6.736;2023-09-18T09:03:38;100168.69;;;20.17;95.25
79534;BME280;68982;52.160;6.736;2023-09-18T09:06:05;100153.09;;;20.22;94.64
79534;BME280;68982;52.160;6.736;2023-09-18T09:08:31;100161.31;;;20.17;92.47
79534;BME280;68982;52.160;6.736;2023-09-18T09:10:57;100148.69;;;20.16;93.75
79534;BME280;68982;52.160;6.736;2023-09-18T09:13:26;100155.84;;;20.22;93.30
79534;BME280;68982;52.160;6.736;2023-09-18T09:15:53;100147.06;;;20.15;93.70
79534;BME280;68982;52.160;6.736;2023-09-18T09:18:21;100152.56;;;20.25;93.48
79534;BME280;68982;52.160;6.736;2023-09-18T09:21:03;100159.41;;;20.28;91.98
79534;BME280;68982;52.160;6.736;2023-09-18T09:23:48;100156.38;;;20.24;91.81
79534;BME280;68982;52.160;6.736;2023-09-18T09:26:16;100182.13;;;20.23;92.94
79534;BME280;68982;52.160;6.736;2023-09-18T09:28:43;100164.84;;;20.18;92.06
79534;BME280;68982;52.160;6.736;2023-09-18T09:31:08;100174.78;;;20.39;90.50
79534;BME280;68982;52.160;6.736;2023-09-18T09:33:36;100166.81;;;20.33;90.62
79534;BME280;68982;52.160;6.736;2023-09-18T09:36:06;100173.97;;;20.39;90.55
79534;BME280;68982;52.160;6.736;2023-09-18T09:38:34;100159.44;;;20.33;89.55
79534;BME280;68982;52.160;6.736;2023-09-18T09:40:59;100155.31;;;20.36;89.37
79534;BME280;68982;52.160;6.736;2023-09-18T09:43:26;100159.72;;;20.37;89.46
79534;BME280;68982;52.160;6.736;2023-09-18T09:46:05;100162.72;;;20.40;88.12
79534;BME280;68982;52.160;6.736;2023-09-18T09:48:30;100149.59;;;20.37;88.15
79534;BME280;68982;52.160;6.736;2023-09-18T09:50:58;100152.06;;;20.39;87.36
79534;BME280;68982;52.160;6.736;2023-09-18T09:53:46;100160.56;;;20.53;86.70
79534;BME280;68982;52.160;6.736;2023-09-18T09:56:13;100160.03;;;20.61;87.21
79534;BME280;68982;52.160;6.736;2023-09-18T09:58:38;100166.31;;;20.56;87.54
79534;BME280;68982;52.160;6.736;2023-09-18T10:01:08;100168.25;;;20.61;87.64
79534;BME280;68982;52.160;6.736;2023-09-18T10:03:37;100169.31;;;20.49;86.36
79534;BME280;68982;52.160;6.736;2023-09-18T10:06:04;100168.75;;;20.47;84.97
79534;BME280;68982;52.160;6.736;2023-09-18T10:08:31;100183.38;;;20.79;85.92
79534;BME280;68982;52.160;6.736;2023-09-18T10:11:05;100185.59;;;20.92;84.50
79534;BME280;68982;52.160;6.736;2023-09-18T10:13:36;100193.53;;;20.94;82.91
79534;BME280;68982;52.160;6.736;2023-09-18T10:16:06;100180.91;;;21.18;84.98
79534;BME280;68982;52.160;6.736;2023-09-18T10:18:41;100194.34;;;21.45;84.90
79534;BME280;68982;52.160;6.736;2023-09-18T10:21:28;100196.56;;;21.28;82.54
79534;BME280;68982;52.160;6.736;2023-09-18T10:24:19;100202.84;;;21.23;80.93
79534;BME280;68982;52.160;6.736;2023-09-18T10:26:56;100205.81;;;21.78;80.42
79534;BME280;68982;52.160;6.736;2023-09-18T10:29:24;100200.22;;;22.09;77.61
79534;BME280;68982;52.160;6.736;2023-09-18T10:31:51;100199.78;;;21.76;77.75
79534;BME280;68982;52.160;6.736;2023-09-18T10:34:18;100200.13;;;21.44;80.39
79534;BME280;68982;52.160;6.736;2023-09-18T10:36:46;100200.06;;;21.75;79.71
79534;BME280;68982;52.160;6.736;2023-09-18T10:39:12;100189.66;;;21.36;79.38
79534;BME280;68982;52.160;6.736;2023-09-18T10:41:38;100197.09;;;21.35;79.95
79534;BME280;68982;52.160;6.736;2023-09-18T10:44:06;100204.47;;;21.60;78.98
79534;BME280;68982;52.160;6.736;2023-09-18T10:46:32;100211.88;;;21.60;79.55
79534;BME280;68982;52.160;6.736;2023-09-18T10:48:59;100208.84;;;21.66;79.07
79534;BME280;68982;52.160;6.736;2023-09-18T10:51:25;100220.91;;;21.76;77.78
79534;BME280;68982;52.160;6.736;2023-09-18T10:53:56;100204.97;;;21.83;78.62
79534;BME280;68982;52.160;6.736;2023-09-18T10:56:22;100209.31;;;21.94;76.59
79534;BME280;68982;52.160;6.736;2023-09-18T10:58:56;100193.56;;;22.25;75.36
79534;BME280;68982;52.160;6.736;2023-09-18T11:01:23;100201.56;;;22.11;76.49
79534;BME280;68982;52.160;6.736;2023-09-18T11:03:50;100199.25;;;22.44;75.54
79534;BME280;68982;52.160;6.736;2023-09-18T11:06:15;100193.25;;;22.82;74.80
79534;BME280;68982;52.160;6.736;2023-09-18T11:08:48;100194.63;;;23.18;73.75
79534;BME280;68982;52.160;6.736;2023-09-18T11:11:16;100208.41;;;22.79;72.68
79534;BME280;68982;52.160;6.736;2023-09-18T11:13:46;100212.06;;;22.64;73.15
79534;BME280;68982;52.160;6.736;2023-09-18T11:21:30;100208.13;;;22.21;72.33
79534;BME280;68982;52.160;6.736;2023-09-18T11:24:05;100209.03;;;22.01;74.37
79534;BME280;68982;52.160;6.736;2023-09-18T11:26:32;100218.66;;;21.93;74.99
79534;BME280;68982;52.160;6.736;2023-09-18T11:29:04;100215.97;;;21.78;75.48
79534;BME280;68982;52.160;6.736;2023-09-18T11:31:53;100216.22;;;21.76;77.39
79534;BME280;68982;52.160;6.736;2023-09-18T11:34:30;100204.69;;;21.84;76.59
79534;BME280;68982;52.160;6.736;2023-09-18T11:37:19;100204.38;;;21.96;76.38
79534;BME280;68982;52.160;6.736;2023-09-18T11:39:45;100207.13;;;22.01;75.22
79534;BME280;68982;52.160;6.736;2023-09-18T11:42:17;100207.38;;;22.05;75.66
79534;BME280;68982;52.160;6.736;2023-09-18T11:44:44;100199.13;;;22.05;75.70
79534;BME280;68982;52.160;6.736;2023-09-18T11:47:14;100198.03;;;22.01;75.15
79534;BME280;68982;52.160;6.736;2023-09-18T11:49:49;100205.78;;;21.88;76.03
79534;BME280;68982;52.160;6.736;2023-09-18T11:52:16;100191.53;;;21.86;76.91
79534;BME280;68982;52.160;6.736;2023-09-18T11:54:43;100178.34;;;21.88;76.26
79534;BME280;68982;52.160;6.736;2023-09-18T11:57:10;100189.03;;;21.95;75.27
79534;BME280;68982;52.160;6.736;2023-09-18T11:59:40;100172.31;;;21.76;76.10
79534;BME280;68982;52.160;6.736;2023-09-18T12:02:07;100183.34;;;21.61;76.62
79534;BME280;68982;52.160;6.736;2023-09-18T12:04:34;100179.00;;;21.55;78.27
79534;BME280;68982;52.160;6.736;2023-09-18T12:06:59;100177.38;;;21.43;78.51
79534;BME280;68982;52.160;6.736;2023-09-18T12:09:30;100184.75;;;21.38;79.66
79534;BME280;68982;52.160;6.736;2023-09-18T12:11:58;100189.69;;;21.30;77.74
79534;BME280;68982;52.160;6.736;2023-09-18T12:14:30;100190.53;;;21.46;78.14
79534;BME280;68982;52.160;6.736;2023-09-18T12:16:56;100189.75;;;22.16;75.88
79534;BME280;68982;52.160;6.736;2023-09-18T12:19:22;100171.06;;;22.18;75.39
79534;BME280;68982;52.160;6.736;2023-09-18T12:21:48;100169.16;;;22.13;75.42
79534;BME280;68982;52.160;6.736;2023-09-18T12:24:24;100171.00;;;22.78;72.20
79534;BME280;68982;52.160;6.736;2023-09-18T12:26:54;100171.75;;;22.89;70.99
79534;BME280;68982;52.160;6.736;2023-09-18T12:29:20;100178.34;;;22.93;71.91
79534;BME280;68982;52.160;6.736;2023-09-18T12:31:45;100174.50;;;22.89;71.56
79534;BME280;68982;52.160;6.736;2023-09-18T12:34:18;100183.34;;;22.86;72.26
79534;BME280;68982;52.160;6.736;2023-09-18T12:36:46;100174.72;;;22.97;71.76
79534;BME280;68982;52.160;6.736;2023-09-18T12:39:16;100180.59;;;22.81;71.78
79534;BME280;68982;52.160;6.736;2023-09-18T12:41:44;100175.09;;;22.86;70.71
79534;BME280;68982;52.160;6.736;2023-09-18T12:44:11;100164.56;;;23.32;67.91
79534;BME280;68982;52.160;6.736;2023-09-18T12:46:38;100165.94;;;23.30;68.88
79534;BME280;68982;52.160;6.736;2023-09-18T12:51:41;100149.72;;;23.28;67.84
79534;BME280;68982;52.160;6.736;2023-09-18T12:54:06;100163.00;;;23.50;66.24
79534;BME280;68982;52.160;6.736;2023-09-18T12:56:32;100161.31;;;23.54;67.43
79534;BME280;68982;52.160;6.736;2023-09-18T12:59:00;100151.78;;;23.95;65.38
79534;BME280;68982;52.160;6.736;2023-09-18T13:01:25;100151.41;;;24.02;64.67